createdAt,value
2022-12-06T00:02:00.412Z,16.55
2022-12-06T00:04:28.326Z,14.35
2022-12-06T00:06:57.411Z,16.58
2022-12-06T00:09:28.492Z,16.13
2022-12-06T00:11:57.365Z,15.88
2022-12-06T00:14:25.887Z,13.85
2022-12-06T00:16:53.700Z,14.57
2022-12-06T00:19:23.936Z,15.07
2022-12-06T00:21:51.987Z,15.43
2022-12-06T00:24:21.578Z,14.57
2022-12-06T00:26:51.645Z,17.30
2022-12-06T00:29:21.643Z,15.77
2022-12-06T00:31:50.208Z,16.10
2022-12-06T00:34:18.826Z,15.18
2022-12-06T00:36:46.631Z,17.30
2022-12-06T00:39:16.537Z,14.43
2022-12-06T00:41:45.004Z,17.60
2022-12-06T00:44:14.238Z,16.35
2022-12-06T00:46:42.193Z,19.38
2022-12-06T00:49:10.898Z,17.15
2022-12-06T00:51:39.950Z,20.75
2022-12-06T00:54:08.533Z,17.75
2022-12-06T00:56:37.386Z,18.77
2022-12-06T00:59:06.056Z,18.75
2022-12-06T01:01:36.716Z,16.60
2022-12-06T01:04:06.778Z,21.95
2022-12-06T01:06:36.671Z,21.13
2022-12-06T01:09:07.103Z,23.83
2022-12-06T01:11:35.183Z,19.38
2022-12-06T01:14:03.625Z,20.80
2022-12-06T01:16:32.422Z,24.65
2022-12-06T01:19:03.920Z,19.00
2022-12-06T01:21:31.932Z,19.05
2022-12-06T01:23:59.618Z,19.17
2022-12-06T01:26:30.236Z,20.88
2022-12-06T01:28:58.656Z,24.65
2022-12-06T01:31:29.668Z,18.00
2022-12-06T01:34:02.863Z,16.67
2022-12-06T01:36:30.549Z,17.35
2022-12-06T01:39:00.945Z,18.88
2022-12-06T01:41:29.367Z,20.77
2022-12-06T01:43:57.365Z,18.58
2022-12-06T01:46:33.090Z,16.55
2022-12-06T01:49:09.489Z,14.75
2022-12-06T01:51:37.749Z,15.05
2022-12-06T01:54:09.450Z,17.98
2022-12-06T01:56:38.552Z,17.50
2022-12-06T01:59:07.244Z,19.38
2022-12-06T02:01:36.121Z,17.88
2022-12-06T02:04:06.979Z,17.48
2022-12-06T02:06:35.838Z,16.60
2022-12-06T02:09:07.095Z,16.85
2022-12-06T02:11:35.960Z,16.67
2022-12-06T02:14:05.551Z,18.17
2022-12-06T02:16:46.822Z,18.75
2022-12-06T02:19:49.139Z,17.95
2022-12-06T02:22:24.831Z,18.33
2022-12-06T02:25:01.763Z,15.57
2022-12-06T02:28:05.205Z,17.98
2022-12-06T02:30:43.114Z,17.15
2022-12-06T02:33:16.947Z,16.83
2022-12-06T02:35:50.477Z,18.33
2022-12-06T02:38:26.127Z,16.70
2022-12-06T02:40:58.334Z,15.27
2022-12-06T02:43:31.691Z,14.70
2022-12-06T02:46:04.024Z,17.00
2022-12-06T02:48:34.033Z,16.50
2022-12-06T02:51:06.992Z,14.48
2022-12-06T02:53:39.393Z,18.08
2022-12-06T02:56:08.681Z,14.85
2022-12-06T02:58:36.851Z,14.02
2022-12-06T03:01:11.922Z,15.90
2022-12-06T03:03:59.013Z,15.73
2022-12-06T03:06:41.544Z,15.45
2022-12-06T03:09:23.442Z,15.35
2022-12-06T03:11:58.598Z,14.70
2022-12-06T03:14:29.413Z,18.85
2022-12-06T03:17:10.356Z,17.40
2022-12-06T03:19:40.946Z,16.20
2022-12-06T03:22:12.818Z,15.18
2022-12-06T03:24:42.587Z,18.85
2022-12-06T03:27:14.611Z,18.73
2022-12-06T03:29:46.477Z,16.50
2022-12-06T03:32:20.679Z,16.50
2022-12-06T03:34:52.129Z,17.50
2022-12-06T03:37:23.176Z,17.15
2022-12-06T03:39:59.511Z,14.95
2022-12-06T03:42:28.237Z,14.95
2022-12-06T03:44:56.024Z,15.35
2022-12-06T03:47:33.064Z,16.45
2022-12-06T03:50:05.470Z,14.93
2022-12-06T03:52:35.080Z,20.75
2022-12-06T03:55:02.856Z,15.25
2022-12-06T03:57:30.539Z,16.98
2022-12-06T03:59:58.494Z,14.02
2022-12-06T04:02:27.838Z,16.45
2022-12-06T04:04:55.489Z,14.48
2022-12-06T04:07:23.092Z,14.38
2022-12-06T04:09:56.048Z,15.35
2022-12-06T04:12:42.192Z,14.18
2022-12-06T04:15:11.177Z,17.48
2022-12-06T04:17:57.946Z,15.80
2022-12-06T04:20:26.357Z,15.07
2022-12-06T04:23:05.582Z,20.67
2022-12-06T04:25:34.223Z,16.75
2022-12-06T04:28:20.210Z,19.00
2022-12-06T04:31:05.740Z,15.77
2022-12-06T04:33:52.354Z,19.33
2022-12-06T04:36:37.774Z,14.82
2022-12-06T04:39:05.677Z,15.43
2022-12-06T04:41:50.151Z,18.73
2022-12-06T04:44:17.886Z,16.13
2022-12-06T04:46:45.698Z,16.27
2022-12-06T04:49:14.918Z,16.55
2022-12-06T04:51:42.646Z,18.63
2022-12-06T04:54:10.355Z,18.02
2022-12-06T04:56:38.059Z,15.52
2022-12-06T04:59:05.758Z,17.83
2022-12-06T05:01:33.391Z,19.52
2022-12-06T05:04:01.186Z,15.35
2022-12-06T05:06:30.312Z,17.63
2022-12-06T05:08:58.123Z,20.85
2022-12-06T05:11:25.778Z,19.83
2022-12-06T05:13:53.438Z,21.08
2022-12-06T05:16:21.121Z,19.65
2022-12-06T05:18:48.856Z,23.20
2022-12-06T05:21:18.840Z,18.00
2022-12-06T05:23:48.147Z,17.52
2022-12-06T05:26:17.909Z,18.40
2022-12-06T05:28:48.609Z,19.25
2022-12-06T05:31:17.018Z,18.00
2022-12-06T05:33:45.645Z,17.83
2022-12-06T05:36:16.027Z,18.60
2022-12-06T05:38:48.476Z,17.58
2022-12-06T05:41:20.852Z,17.05
2022-12-06T05:43:48.871Z,16.45
2022-12-06T05:46:16.820Z,20.17
2022-12-06T05:48:44.725Z,23.33
2022-12-06T05:51:12.649Z,22.77
2022-12-06T05:53:40.790Z,23.45
2022-12-06T05:56:11.189Z,21.52
2022-12-06T05:58:41.081Z,27.25
2022-12-06T06:01:09.668Z,20.65
2022-12-06T06:03:42.433Z,24.60
2022-12-06T06:06:13.351Z,22.05
2022-12-06T06:08:41.059Z,19.55
2022-12-06T06:11:09.217Z,21.33
2022-12-06T06:13:36.918Z,19.63
2022-12-06T06:16:06.479Z,18.55
2022-12-06T06:18:34.154Z,20.60
2022-12-06T06:21:02.423Z,17.00
2022-12-06T06:23:30.086Z,18.65
2022-12-06T06:25:57.804Z,18.00
2022-12-06T06:28:25.903Z,18.85
2022-12-06T06:30:53.627Z,22.98
2022-12-06T06:33:22.605Z,15.95
2022-12-06T06:35:50.216Z,20.17
2022-12-06T06:38:17.807Z,21.95
2022-12-06T06:40:45.596Z,22.48
2022-12-06T06:43:20.096Z,21.80
2022-12-06T06:45:53.823Z,19.58
2022-12-06T06:48:24.879Z,19.45
2022-12-06T06:50:56.979Z,17.48
2022-12-06T06:53:27.298Z,18.23
2022-12-06T06:55:54.983Z,19.35
2022-12-06T06:58:22.776Z,18.55
2022-12-06T07:00:53.869Z,18.73
2022-12-06T07:03:24.055Z,19.50
2022-12-06T07:05:57.547Z,17.70
2022-12-06T07:08:26.342Z,17.85
2022-12-06T07:10:54.472Z,18.23
2022-12-06T07:13:22.643Z,18.77
2022-12-06T07:15:50.469Z,18.13
2022-12-06T07:18:18.470Z,18.67
2022-12-06T07:20:48.661Z,20.50
2022-12-06T07:23:16.926Z,17.67
2022-12-06T07:25:44.579Z,16.90
2022-12-06T07:28:12.287Z,15.70
2022-12-06T07:31:29.765Z,15.80
2022-12-06T07:34:00.619Z,15.52
2022-12-06T07:36:46.846Z,15.05
2022-12-06T07:39:15.632Z,17.02
2022-12-06T07:42:00.840Z,16.35
2022-12-06T07:45:01.694Z,16.58
2022-12-06T07:47:33.852Z,16.05
2022-12-06T07:50:01.982Z,16.77
2022-12-06T07:52:33.400Z,18.70
2022-12-06T07:55:01.282Z,19.10
2022-12-06T07:57:29.214Z,16.27
2022-12-06T07:59:57.350Z,18.23
2022-12-06T08:02:27.234Z,17.25
2022-12-06T08:04:55.636Z,23.63
2022-12-06T08:07:24.229Z,16.70
2022-12-06T08:09:54.014Z,18.10
2022-12-06T08:12:22.532Z,16.20
2022-12-06T08:14:51.019Z,16.90
2022-12-06T08:17:20.874Z,17.25
2022-12-06T08:19:48.596Z,17.00
2022-12-06T08:22:16.285Z,21.90
2022-12-06T08:24:43.942Z,19.50
2022-12-06T08:27:12.946Z,17.73
2022-12-06T08:29:40.575Z,19.13
2022-12-06T08:32:08.254Z,18.42
2022-12-06T08:34:36.153Z,20.40
2022-12-06T08:37:03.963Z,18.17
2022-12-06T08:39:31.795Z,18.65
2022-12-06T08:41:59.518Z,20.40
2022-12-06T08:44:29.702Z,19.35
2022-12-06T08:46:58.811Z,18.60
2022-12-06T08:49:27.489Z,18.02
2022-12-06T08:51:55.459Z,18.05
2022-12-06T08:54:26.024Z,19.02
2022-12-06T08:56:54.005Z,16.70
2022-12-06T08:59:21.913Z,20.02
2022-12-06T09:01:50.968Z,18.30
2022-12-06T09:04:18.990Z,16.00
2022-12-06T09:06:47.437Z,17.98
2022-12-06T09:09:16.926Z,18.92
2022-12-06T09:11:45.920Z,18.20
2022-12-06T09:14:21.102Z,18.02
2022-12-06T09:16:51.844Z,17.63
2022-12-06T09:19:20.691Z,16.52
2022-12-06T09:21:48.545Z,17.08
2022-12-06T09:24:17.778Z,19.42
2022-12-06T09:26:45.396Z,18.73
2022-12-06T09:29:14.027Z,23.25
2022-12-06T09:31:42.039Z,20.73
2022-12-06T09:34:12.559Z,19.30
2022-12-06T09:36:44.464Z,15.55
2022-12-06T09:39:16.400Z,17.90
2022-12-06T09:42:13.293Z,20.05
2022-12-06T09:45:05.569Z,20.02
2022-12-06T09:47:50.774Z,16.63
2022-12-06T09:50:28.655Z,16.23
2022-12-06T09:53:10.607Z,14.15
2022-12-06T09:55:51.878Z,14.73
2022-12-06T09:58:31.533Z,15.88
2022-12-06T10:01:12.323Z,14.13
2022-12-06T10:03:57.462Z,14.00
2022-12-06T10:06:33.741Z,13.35
2022-12-06T10:09:18.311Z,14.93
2022-12-06T10:12:01.236Z,13.00
2022-12-06T10:14:45.073Z,16.38
2022-12-06T10:17:24.709Z,15.45
2022-12-06T10:20:04.641Z,15.45
2022-12-06T10:22:51.459Z,14.50
2022-12-06T10:25:25.835Z,15.38
2022-12-06T10:28:01.903Z,18.40
2022-12-06T10:30:29.782Z,14.63
2022-12-06T10:33:06.345Z,12.77
2022-12-06T10:35:42.236Z,12.13
2022-12-06T10:38:29.013Z,14.00
2022-12-06T10:41:06.890Z,13.25
2022-12-06T10:43:41.160Z,14.75
2022-12-06T10:46:32.881Z,13.85
2022-12-06T10:49:05.404Z,14.38
2022-12-06T10:51:40.597Z,16.73
2022-12-06T10:54:23.597Z,15.00
2022-12-06T10:56:54.889Z,16.13
2022-12-06T10:59:33.400Z,16.27
2022-12-06T11:02:14.814Z,17.83
2022-12-06T11:04:45.910Z,16.25
2022-12-06T11:07:19.093Z,15.65
2022-12-06T11:09:52.307Z,13.82
2022-12-06T11:12:29.545Z,14.35
2022-12-06T11:15:08.252Z,14.27
2022-12-06T11:17:43.210Z,14.75
2022-12-06T11:20:22.266Z,13.18
2022-12-06T11:22:59.457Z,16.15
2022-12-06T11:25:36.306Z,11.18
2022-12-06T11:28:12.144Z,14.00
2022-12-06T11:30:40.007Z,13.63
2022-12-06T11:33:10.036Z,14.32
2022-12-06T11:35:37.931Z,12.50
2022-12-06T11:38:08.522Z,11.82
2022-12-06T11:40:43.258Z,12.73
2022-12-06T11:43:17.087Z,14.07
2022-12-06T11:45:47.159Z,14.35
2022-12-06T11:48:18.318Z,13.85
2022-12-06T11:50:47.766Z,15.23
2022-12-06T11:53:22.994Z,16.45
2022-12-06T11:55:55.377Z,13.77
2022-12-06T11:58:29.369Z,11.93
2022-12-06T12:00:59.974Z,16.10
2022-12-06T12:03:29.921Z,15.48
2022-12-06T12:06:17.797Z,14.88
2022-12-06T12:08:55.271Z,15.73
2022-12-06T12:11:27.249Z,14.70
2022-12-06T12:13:59.708Z,16.27
2022-12-06T12:16:30.630Z,13.90
2022-12-06T12:19:01.087Z,14.15
2022-12-06T12:21:40.835Z,16.42
2022-12-06T12:27:45.178Z,13.77
2022-12-06T12:30:31.359Z,15.00
2022-12-06T12:33:26.937Z,15.95
2022-12-06T12:35:58.100Z,14.32
2022-12-06T12:38:37.608Z,11.48
2022-12-06T12:41:18.843Z,13.20
2022-12-06T12:44:20.901Z,12.60
2022-12-06T12:46:49.820Z,11.15
2022-12-06T12:49:28.031Z,10.75
2022-12-06T12:51:56.241Z,10.60
2022-12-06T12:54:28.365Z,10.35
2022-12-06T12:56:56.997Z,9.65
2022-12-06T12:59:28.071Z,7.43
2022-12-06T13:02:02.033Z,8.15
2022-12-06T13:04:41.234Z,9.55
2022-12-06T13:07:17.899Z,8.52
2022-12-06T13:09:52.539Z,7.50
2022-12-06T13:12:24.858Z,6.70
2022-12-06T13:15:00.259Z,7.05
2022-12-06T13:17:30.080Z,5.35
2022-12-06T13:19:57.858Z,5.03
2022-12-06T13:22:28.789Z,3.55
2022-12-06T13:25:01.560Z,4.10
2022-12-06T13:27:33.908Z,4.38
2022-12-06T13:30:07.128Z,4.40
2022-12-06T13:32:42.117Z,5.05
2022-12-06T13:35:22.736Z,4.85
2022-12-06T13:37:54.828Z,4.35
2022-12-06T13:40:45.281Z,4.30
2022-12-06T13:43:56.636Z,4.05
2022-12-06T13:46:29.211Z,3.97
2022-12-06T13:48:58.011Z,4.47
2022-12-06T13:51:46.076Z,4.35
2022-12-06T13:54:34.377Z,3.97
2022-12-06T13:57:21.332Z,4.93
2022-12-06T13:59:49.069Z,4.88
2022-12-06T14:02:47.050Z,4.22
2022-12-06T14:08:18.524Z,5.53
2022-12-06T14:10:46.974Z,5.10
2022-12-06T14:13:17.904Z,6.10
2022-12-06T14:15:51.177Z,4.93
2022-12-06T14:18:27.401Z,4.70
2022-12-06T14:20:57.326Z,5.43
2022-12-06T14:23:30.577Z,4.90
2022-12-06T14:26:21.306Z,5.45
2022-12-06T14:28:50.237Z,5.30
2022-12-06T14:31:21.935Z,5.93
2022-12-06T14:33:51.122Z,5.97
2022-12-06T14:36:24.772Z,5.07
2022-12-06T14:39:00.574Z,6.30
2022-12-06T14:41:55.612Z,5.50
2022-12-06T14:44:29.856Z,6.05
2022-12-06T14:46:58.032Z,6.88
2022-12-06T14:49:46.452Z,5.47
2022-12-06T14:52:19.396Z,7.30
2022-12-06T14:54:47.961Z,7.93
2022-12-06T14:57:22.882Z,8.38
2022-12-06T15:00:22.330Z,9.02
2022-12-06T15:03:22.723Z,7.68
2022-12-06T15:06:09.335Z,7.45
2022-12-06T15:08:39.971Z,8.10
2022-12-06T15:11:42.636Z,8.32
2022-12-06T15:14:15.935Z,8.30
2022-12-06T15:16:45.768Z,7.10
2022-12-06T15:19:15.405Z,8.15
2022-12-06T15:21:44.379Z,8.52
2022-12-06T15:24:18.096Z,8.20
2022-12-06T15:26:46.077Z,8.65
2022-12-06T15:29:13.806Z,9.70
2022-12-06T15:31:44.722Z,9.15
2022-12-06T15:34:23.654Z,8.02
2022-12-06T15:37:09.329Z,8.00
2022-12-06T15:39:42.213Z,9.25
2022-12-06T15:42:16.958Z,8.27
2022-12-06T15:44:49.164Z,9.40
2022-12-06T15:47:18.339Z,9.27
2022-12-06T15:49:45.941Z,8.75
2022-12-06T15:52:17.638Z,8.35
2022-12-06T15:54:45.813Z,9.35
2022-12-06T15:57:13.406Z,8.65
2022-12-06T15:59:41.018Z,9.60
2022-12-06T16:02:14.102Z,9.93
2022-12-06T16:04:41.862Z,9.43
2022-12-06T16:07:10.449Z,9.50
2022-12-06T16:09:39.529Z,12.00
2022-12-06T16:12:07.758Z,10.73
2022-12-06T16:14:36.387Z,10.95
2022-12-06T16:17:04.247Z,10.30
2022-12-06T16:19:45.845Z,10.95
2022-12-06T16:22:13.520Z,9.48
2022-12-06T16:24:41.588Z,10.73
2022-12-06T16:27:09.440Z,11.35
2022-12-06T16:29:37.121Z,10.43
2022-12-06T16:32:05.017Z,11.32
2022-12-06T16:34:32.818Z,9.98
2022-12-06T16:37:02.483Z,10.93
2022-12-06T16:39:31.660Z,11.85
2022-12-06T16:42:01.107Z,11.55
2022-12-06T16:44:28.782Z,10.70
2022-12-06T16:46:56.673Z,12.38
2022-12-06T16:52:13.889Z,12.52
2022-12-06T16:54:42.298Z,11.40
2022-12-06T16:57:12.521Z,10.75
2022-12-06T16:59:40.433Z,11.32
2022-12-06T17:02:24.295Z,10.65
2022-12-06T17:04:51.904Z,11.27
2022-12-06T17:07:19.546Z,12.40
2022-12-06T17:09:47.104Z,10.13
2022-12-06T17:12:16.641Z,11.45
2022-12-06T17:14:44.503Z,10.57
2022-12-06T17:17:14.050Z,11.20
2022-12-06T17:19:43.225Z,9.82
2022-12-06T17:22:11.691Z,9.43
2022-12-06T17:24:39.867Z,9.38
2022-12-06T17:27:09.040Z,10.32
2022-12-06T17:29:38.515Z,10.45
2022-12-06T17:32:07.004Z,9.38
2022-12-06T17:34:34.934Z,9.55
2022-12-06T17:37:02.563Z,8.23
2022-12-06T17:39:30.315Z,10.07
2022-12-06T17:42:15.364Z,10.43
2022-12-06T17:44:44.368Z,10.50
2022-12-06T17:47:12.230Z,10.52
2022-12-06T17:49:39.886Z,9.32
2022-12-06T17:52:07.592Z,11.18
2022-12-06T17:54:35.267Z,10.65
2022-12-06T17:57:03.080Z,10.70
2022-12-06T17:59:32.789Z,9.23
2022-12-06T18:02:18.525Z,9.73
2022-12-06T18:04:48.030Z,9.35
2022-12-06T18:07:16.497Z,9.88
2022-12-06T18:09:44.158Z,9.38
2022-12-06T18:12:13.229Z,9.60
2022-12-06T18:14:40.852Z,10.75
2022-12-06T18:17:10.243Z,11.18
2022-12-06T18:19:38.155Z,10.90
2022-12-06T18:22:05.904Z,9.40
2022-12-06T18:24:35.892Z,11.65
2022-12-06T18:27:04.801Z,9.95
2022-12-06T18:29:33.034Z,10.52
2022-12-06T18:32:00.878Z,10.07
2022-12-06T18:34:30.024Z,8.43
2022-12-06T18:36:57.806Z,8.15
2022-12-06T18:39:25.891Z,8.65
2022-12-06T18:41:54.375Z,9.30
2022-12-06T18:44:22.282Z,9.88
2022-12-06T18:46:50.100Z,9.10
2022-12-06T18:49:17.862Z,8.95
2022-12-06T18:51:46.881Z,9.15
2022-12-06T18:54:14.731Z,9.45
2022-12-06T18:56:43.127Z,8.68
2022-12-06T18:59:12.712Z,9.15
2022-12-06T19:01:41.867Z,9.10
2022-12-06T19:04:14.161Z,9.40
2022-12-06T19:06:42.025Z,9.15
2022-12-06T19:09:13.446Z,9.07
2022-12-06T19:11:43.560Z,8.52
2022-12-06T19:14:11.651Z,9.23
2022-12-06T19:16:42.308Z,9.50
2022-12-06T19:19:16.172Z,9.07
2022-12-06T19:21:45.301Z,8.85
2022-12-06T19:24:16.538Z,9.50
2022-12-06T19:26:44.795Z,9.73
2022-12-06T19:29:12.555Z,8.98
2022-12-06T19:31:40.162Z,9.80
2022-12-06T19:34:08.367Z,9.68
2022-12-06T19:36:36.186Z,9.20
2022-12-06T19:39:05.867Z,8.98
2022-12-06T19:41:56.057Z,10.18
2022-12-06T19:44:22.993Z,10.18
2022-12-06T19:46:50.711Z,9.40
2022-12-06T19:49:21.043Z,9.35
2022-12-06T19:51:49.550Z,12.77
2022-12-06T19:54:19.658Z,10.60
2022-12-06T19:56:48.909Z,9.80
2022-12-06T19:59:16.901Z,11.25
2022-12-06T20:01:46.572Z,11.00
2022-12-06T20:04:16.959Z,12.15
2022-12-06T20:06:44.726Z,10.05
2022-12-06T20:09:13.044Z,12.15
2022-12-06T20:11:59.168Z,14.98
2022-12-06T20:14:30.002Z,12.05
2022-12-06T20:16:57.859Z,13.40
2022-12-06T20:19:25.474Z,12.70
2022-12-06T20:21:53.109Z,13.23
2022-12-06T20:24:22.886Z,11.88
2022-12-06T20:26:52.720Z,11.38
2022-12-06T20:29:21.375Z,13.60
2022-12-06T20:31:51.807Z,13.23
2022-12-06T20:34:20.003Z,11.65
2022-12-06T20:36:47.998Z,12.02
2022-12-06T20:39:20.719Z,13.75
2022-12-06T20:41:49.376Z,12.40
2022-12-06T20:44:17.985Z,14.18
2022-12-06T20:46:46.211Z,16.20
2022-12-06T20:49:16.167Z,14.18
2022-12-06T20:51:49.579Z,15.43
2022-12-06T20:54:20.265Z,18.80
2022-12-06T20:56:51.322Z,17.17
2022-12-06T20:59:19.183Z,16.45
2022-12-06T21:01:46.901Z,20.23
2022-12-06T21:04:17.002Z,20.30
2022-12-06T21:06:44.617Z,16.92
2022-12-06T21:09:12.522Z,19.25
2022-12-06T21:11:40.169Z,22.30
2022-12-06T21:14:07.872Z,20.45
2022-12-06T21:16:38.093Z,20.33
2022-12-06T21:19:07.737Z,17.08
2022-12-06T21:21:38.385Z,18.70
2022-12-06T21:24:08.340Z,18.38
2022-12-06T21:26:36.723Z,23.27
2022-12-06T21:29:05.181Z,23.30
2022-12-06T21:31:34.918Z,21.48
2022-12-06T21:34:03.292Z,19.52
2022-12-06T21:36:31.186Z,23.60
2022-12-06T21:39:00.477Z,21.20
2022-12-06T21:41:28.632Z,25.20
2022-12-06T21:43:56.343Z,22.90
2022-12-06T21:46:25.765Z,25.42
2022-12-06T21:48:55.196Z,25.65
2022-12-06T21:51:24.023Z,25.58
2022-12-06T21:53:52.010Z,27.02
2022-12-06T21:56:22.820Z,27.58
2022-12-06T21:58:51.294Z,27.10
2022-12-06T22:01:21.517Z,28.25
2022-12-06T22:03:49.463Z,27.25
2022-12-06T22:06:17.363Z,30.33
2022-12-06T22:08:46.524Z,29.75
2022-12-06T22:11:16.251Z,32.33
2022-12-06T22:13:46.026Z,31.08
2022-12-06T22:16:14.678Z,29.20
2022-12-06T22:18:45.844Z,34.72
2022-12-06T22:21:17.391Z,32.15
2022-12-06T22:23:45.414Z,28.45
2022-12-06T22:26:15.412Z,32.03
2022-12-06T22:28:43.135Z,32.33
2022-12-06T22:31:15.103Z,31.45
2022-12-06T22:33:43.570Z,32.92
2022-12-06T22:36:12.960Z,33.50
2022-12-06T22:38:40.820Z,30.80
2022-12-06T22:41:08.825Z,32.30
2022-12-06T22:43:37.466Z,36.17
2022-12-06T22:46:06.561Z,31.98
2022-12-06T22:48:35.788Z,33.47
2022-12-06T22:51:11.685Z,33.03
2022-12-06T22:53:39.828Z,32.28
2022-12-06T22:56:07.864Z,34.33
2022-12-06T22:58:36.178Z,32.38
2022-12-06T23:01:15.968Z,35.75
2022-12-06T23:03:46.768Z,38.95
2022-12-06T23:06:15.232Z,35.90
2022-12-06T23:08:43.461Z,35.72
2022-12-06T23:11:13.070Z,32.42
2022-12-06T23:13:41.141Z,30.95
2022-12-06T23:16:13.036Z,36.70
2022-12-06T23:18:40.977Z,37.25
2022-12-06T23:21:13.269Z,38.38
2022-12-06T23:23:42.323Z,36.33
2022-12-06T23:26:12.810Z,34.53
2022-12-06T23:28:41.089Z,37.95
2022-12-06T23:31:13.705Z,36.95
2022-12-06T23:33:41.873Z,37.58
2022-12-06T23:36:13.609Z,36.60
2022-12-06T23:38:41.640Z,35.42
2022-12-06T23:41:11.449Z,33.42
2022-12-06T23:43:39.624Z,35.85
2022-12-06T23:46:08.347Z,37.25
2022-12-06T23:48:36.933Z,32.40
2022-12-06T23:51:06.793Z,33.35
2022-12-06T23:53:36.904Z,34.45
2022-12-06T23:56:07.440Z,37.83
2022-12-06T23:58:36.047Z,37.70
